createdAt,value
2023-05-05T00:04:20.936Z,77.71
2023-05-05T00:09:20.842Z,78.02
2023-05-05T00:14:20.811Z,78.25
2023-05-05T00:19:20.677Z,78.09
2023-05-05T00:24:20.640Z,79.46
2023-05-05T00:29:20.501Z,79.46
2023-05-05T00:34:21.190Z,80.01
2023-05-05T00:39:20.481Z,80.32
2023-05-05T00:44:20.610Z,79.46
2023-05-05T00:49:20.480Z,80.01
2023-05-05T00:54:23.524Z,79.66
2023-05-05T00:59:20.285Z,80.32
2023-05-05T01:04:20.311Z,80.11
2023-05-05T01:09:19.999Z,80.87
2023-05-05T01:14:20.009Z,80.87
2023-05-05T01:19:19.835Z,81.73
2023-05-05T01:24:19.880Z,81.62
2023-05-05T01:29:19.739Z,80.97
2023-05-05T01:34:19.764Z,80.42
2023-05-05T01:39:19.808Z,80.66
2023-05-05T01:44:20.096Z,80.73
2023-05-05T01:49:19.454Z,79.56
2023-05-05T01:54:22.421Z,79.46
2023-05-05T01:59:19.327Z,80.87
2023-05-05T02:04:19.285Z,80.21
2023-05-05T02:09:19.189Z,79.05
2023-05-05T02:14:19.184Z,79.60
2023-05-05T02:19:19.255Z,80.35
2023-05-05T02:24:19.070Z,80.84
2023-05-05T02:29:18.928Z,82.32
2023-05-05T02:34:18.895Z,81.87
2023-05-05T02:39:18.966Z,81.52
2023-05-05T02:44:18.766Z,81.67
2023-05-05T02:49:18.672Z,80.80
2023-05-05T02:54:22.086Z,79.98
2023-05-05T02:59:18.530Z,82.87
2023-05-05T03:04:18.538Z,82.87
2023-05-05T03:09:18.458Z,82.32
2023-05-05T03:14:18.413Z,82.56
2023-05-05T03:19:18.288Z,83.04
2023-05-05T03:24:18.343Z,81.76
2023-05-05T03:29:18.279Z,81.46
2023-05-05T03:34:18.128Z,81.11
2023-05-05T03:39:18.179Z,81.11
2023-05-05T03:44:18.001Z,81.32
2023-05-05T03:49:17.877Z,80.66
2023-05-05T03:54:20.910Z,80.56
2023-05-05T03:59:17.859Z,80.46
2023-05-05T04:04:17.785Z,79.08
2023-05-05T04:09:17.637Z,78.43
2023-05-05T04:14:18.088Z,79.39
2023-05-05T04:19:17.600Z,78.33
2023-05-05T04:24:17.472Z,78.74
2023-05-05T04:29:17.539Z,77.23
2023-05-05T04:34:17.389Z,76.03
2023-05-05T04:39:17.265Z,72.96
2023-05-05T04:44:17.199Z,72.58
2023-05-05T04:49:17.113Z,67.15
2023-05-05T04:54:20.474Z,62.29
2023-05-05T04:59:16.952Z,60.35
2023-05-05T05:04:17.065Z,56.53
2023-05-05T05:09:16.892Z,53.70
2023-05-05T05:14:16.840Z,54.10
2023-05-05T05:19:16.805Z,53.40
2023-05-05T05:24:17.639Z,53.02
2023-05-05T05:29:16.806Z,51.48
2023-05-05T05:34:16.530Z,48.47
2023-05-05T05:39:16.512Z,52.14
2023-05-05T05:44:16.598Z,50.02
2023-05-05T05:49:16.533Z,53.14
2023-05-05T05:54:19.256Z,50.00
2023-05-05T05:59:16.203Z,48.75
2023-05-05T06:04:16.415Z,48.05
2023-05-05T06:09:16.083Z,47.05
2023-05-05T06:14:18.013Z,46.12
2023-05-05T06:19:16.065Z,45.58
2023-05-05T06:24:16.219Z,43.59
2023-05-05T06:29:15.808Z,43.19
2023-05-05T06:34:16.515Z,42.97
2023-05-05T06:39:16.241Z,42.24
2023-05-05T06:44:15.792Z,40.66
2023-05-05T06:49:15.538Z,44.54
2023-05-05T06:54:18.624Z,41.74
2023-05-05T06:59:15.545Z,40.24
2023-05-05T07:04:15.570Z,37.06
2023-05-05T07:09:16.996Z,38.77
2023-05-05T07:14:15.569Z,40.20
2023-05-05T07:19:15.262Z,35.31
2023-05-05T07:24:15.391Z,32.24
2023-05-05T07:29:15.093Z,32.01
2023-05-05T07:34:15.263Z,30.50
2023-05-05T07:39:14.992Z,30.45
2023-05-05T07:44:14.945Z,29.66
2023-05-05T07:49:14.877Z,28.96
2023-05-05T07:54:18.008Z,30.33
2023-05-05T07:59:14.745Z,31.53
2023-05-05T08:04:14.912Z,34.18
2023-05-05T08:09:14.797Z,33.95
2023-05-05T08:14:14.900Z,35.05
2023-05-05T08:19:27.616Z,37.76
2023-05-05T08:24:15.658Z,39.76
2023-05-05T08:29:14.475Z,37.82
2023-05-05T08:34:14.453Z,39.82
2023-05-05T08:39:14.319Z,36.89
2023-05-05T08:44:14.406Z,36.57
2023-05-05T08:49:14.108Z,35.75
2023-05-05T08:54:17.232Z,35.84
2023-05-05T08:59:14.121Z,38.13
2023-05-05T09:04:13.917Z,38.20
2023-05-05T09:09:13.923Z,35.52
2023-05-05T09:14:13.899Z,36.89
2023-05-05T09:19:13.961Z,37.67
2023-05-05T09:24:13.586Z,37.73
2023-05-05T09:29:13.622Z,37.81
2023-05-05T09:34:13.600Z,36.47
2023-05-05T09:39:13.365Z,37.02
2023-05-05T09:44:13.544Z,35.46
2023-05-05T09:49:13.246Z,34.91
2023-05-05T09:54:16.269Z,33.80
2023-05-05T09:59:13.121Z,34.71
2023-05-05T10:04:13.120Z,34.99
2023-05-05T10:09:13.005Z,32.48
2023-05-05T10:14:12.954Z,32.76
2023-05-05T10:19:12.929Z,31.49
2023-05-05T10:24:12.821Z,34.43
2023-05-05T10:29:12.782Z,33.19
2023-05-05T10:34:12.831Z,31.24
2023-05-05T10:39:12.719Z,32.42
2023-05-05T10:44:12.714Z,32.30
2023-05-05T10:49:13.456Z,32.28
2023-05-05T10:54:15.517Z,31.41
2023-05-05T10:59:12.348Z,31.57
2023-05-05T11:04:12.333Z,30.94
2023-05-05T11:09:12.290Z,29.55
2023-05-05T11:14:12.871Z,29.74
2023-05-05T11:19:12.165Z,31.19
2023-05-05T11:24:12.086Z,29.52
2023-05-05T11:29:11.957Z,30.94
2023-05-05T11:34:11.938Z,32.09
2023-05-05T11:39:11.849Z,32.14
2023-05-05T11:44:11.886Z,31.96
2023-05-05T11:49:11.722Z,32.27
2023-05-05T11:54:14.745Z,31.54
2023-05-05T11:59:11.607Z,33.06
2023-05-05T12:04:11.831Z,32.25
2023-05-05T12:09:11.469Z,32.78
2023-05-05T12:14:11.490Z,31.20
2023-05-05T12:19:11.287Z,33.36
2023-05-05T12:24:11.518Z,31.90
2023-05-05T12:29:11.180Z,32.24
2023-05-05T12:34:11.215Z,35.29
2023-05-05T12:39:11.045Z,34.88
2023-05-05T12:44:11.118Z,35.27
2023-05-05T12:49:11.143Z,35.49
2023-05-05T12:54:13.986Z,33.57
2023-05-05T12:59:10.792Z,34.58
2023-05-05T13:04:10.962Z,36.16
2023-05-05T13:09:10.687Z,36.18
2023-05-05T13:14:10.771Z,35.90
2023-05-05T13:19:10.659Z,37.98
2023-05-05T13:24:22.900Z,37.29
2023-05-05T13:29:11.586Z,37.39
2023-05-05T13:34:10.493Z,37.29
2023-05-05T13:39:10.309Z,37.88
2023-05-05T13:44:10.196Z,38.20
2023-05-05T13:49:10.237Z,37.88
2023-05-05T13:54:13.121Z,39.33
2023-05-05T13:59:10.136Z,39.31
2023-05-05T14:04:10.139Z,39.84
2023-05-05T14:09:09.902Z,39.51
2023-05-05T14:14:10.022Z,40.12
2023-05-05T14:19:10.003Z,39.53
2023-05-05T14:24:09.708Z,39.09
2023-05-05T14:29:09.758Z,39.61
2023-05-05T14:34:09.632Z,40.34
2023-05-05T14:39:09.529Z,40.16
2023-05-05T14:44:09.537Z,40.96
2023-05-05T14:49:09.465Z,40.42
2023-05-05T14:54:26.994Z,41.25
2023-05-05T14:59:10.436Z,41.66
2023-05-05T15:04:09.240Z,41.71
2023-05-05T15:09:09.093Z,41.16
2023-05-05T15:14:09.227Z,40.82
2023-05-05T15:19:09.038Z,41.00
2023-05-05T15:24:09.000Z,42.13
2023-05-05T15:29:08.904Z,43.32
2023-05-05T15:34:08.866Z,42.37
2023-05-05T15:39:08.705Z,42.37
2023-05-05T15:44:08.795Z,42.77
2023-05-05T15:49:08.733Z,43.48
2023-05-05T15:54:11.574Z,43.84
2023-05-05T15:59:08.490Z,45.03
2023-05-05T16:04:08.501Z,46.12
2023-05-05T16:09:08.331Z,45.40
2023-05-05T16:14:08.431Z,45.55
2023-05-05T16:19:08.203Z,45.14
2023-05-05T16:24:08.245Z,45.18
2023-05-05T16:29:08.075Z,45.94
2023-05-05T16:34:08.143Z,46.12
2023-05-05T16:39:08.165Z,44.90
2023-05-05T16:44:07.889Z,46.06
2023-05-05T16:49:07.836Z,45.86
2023-05-05T16:54:10.900Z,46.19
2023-05-05T16:59:07.676Z,46.16
2023-05-05T17:04:07.752Z,45.44
2023-05-05T17:09:07.550Z,45.60
2023-05-05T17:14:07.499Z,46.17
2023-05-05T17:19:07.470Z,45.79
2023-05-05T17:24:07.501Z,46.61
2023-05-05T17:29:07.316Z,47.88
2023-05-05T17:34:07.281Z,47.20
2023-05-05T17:39:07.182Z,47.18
2023-05-05T17:44:07.272Z,47.78
2023-05-05T17:49:06.995Z,48.00
2023-05-05T17:54:10.090Z,49.55
2023-05-05T17:59:07.099Z,50.67
2023-05-05T18:04:06.996Z,51.07
2023-05-05T18:09:07.277Z,52.29
2023-05-05T18:14:06.784Z,54.07
2023-05-05T18:19:06.714Z,53.47
2023-05-05T18:24:18.690Z,55.27
2023-05-05T18:29:07.626Z,58.09
2023-05-05T18:34:06.405Z,59.95
2023-05-05T18:39:06.414Z,59.98
2023-05-05T18:44:06.328Z,60.51
2023-05-05T18:49:06.971Z,65.90
2023-05-05T18:54:09.307Z,72.20
2023-05-05T18:59:06.067Z,80.02
2023-05-05T19:04:15.629Z,85.25
2023-05-05T19:09:07.260Z,86.21
2023-05-05T19:14:05.911Z,83.47
2023-05-05T19:19:05.843Z,82.62
2023-05-05T19:24:05.925Z,82.39
2023-05-05T19:29:05.769Z,81.01
2023-05-05T19:34:05.626Z,83.40
2023-05-05T19:39:05.708Z,82.93
2023-05-05T19:44:05.602Z,84.48
2023-05-05T19:49:05.552Z,85.22
2023-05-05T19:54:08.533Z,85.30
2023-05-05T19:59:05.345Z,87.02
2023-05-05T20:04:05.321Z,87.08
2023-05-05T20:09:05.379Z,87.38
2023-05-05T20:14:05.243Z,87.58
2023-05-05T20:19:05.175Z,88.29
2023-05-05T20:24:05.131Z,87.44
2023-05-05T20:29:04.931Z,87.95
2023-05-05T20:34:04.914Z,87.54
2023-05-05T20:39:04.794Z,87.64
2023-05-05T20:44:04.782Z,87.44
2023-05-05T20:49:04.819Z,87.44
2023-05-05T20:54:07.672Z,87.64
2023-05-05T20:59:04.502Z,88.43
2023-05-05T21:04:05.079Z,87.99
2023-05-05T21:09:04.358Z,87.82
2023-05-05T21:14:04.572Z,88.09
2023-05-05T21:19:04.375Z,88.02
2023-05-05T21:24:05.575Z,87.38
2023-05-05T21:29:04.108Z,87.73
2023-05-05T21:34:04.064Z,88.88
2023-05-05T21:39:04.056Z,88.48
2023-05-05T21:44:03.970Z,88.33
2023-05-05T21:49:03.868Z,87.82
2023-05-05T21:54:06.979Z,88.07
2023-05-05T21:59:03.777Z,88.92
2023-05-05T22:04:03.932Z,88.37
2023-05-05T22:09:03.578Z,87.46
2023-05-05T22:14:03.563Z,88.42
2023-05-05T22:19:03.443Z,88.17
2023-05-05T22:24:03.552Z,87.36
2023-05-05T22:29:03.419Z,87.93
2023-05-05T22:34:03.293Z,87.32
2023-05-05T22:39:03.710Z,87.42
2023-05-05T22:44:03.293Z,87.66
2023-05-05T22:49:03.135Z,87.66
2023-05-05T22:54:06.063Z,87.62
2023-05-05T22:59:03.040Z,89.06
2023-05-05T23:04:02.924Z,88.27
2023-05-05T23:09:02.859Z,88.07
2023-05-05T23:14:02.786Z,88.27
2023-05-05T23:19:02.723Z,87.77
2023-05-05T23:24:02.644Z,88.01
2023-05-05T23:29:02.538Z,88.07
2023-05-05T23:34:03.200Z,87.46
2023-05-05T23:39:02.386Z,87.66
2023-05-05T23:44:02.354Z,87.81
2023-05-05T23:49:02.349Z,87.56
2023-05-05T23:54:05.233Z,87.71
2023-05-05T23:59:02.219Z,89.31
